Hauptseite
METAR-TAF:

METAR-TAF

Flughäfen :

Militärflugplatz Cameri

Novara, Italien

Breite: 45-31N, Länge: 008-40E, Höhe: 178 m

Beobachtung

Neuester Wetterbericht von vor 17 Stunden und 28 Minuten, um 17:55 UTC
Wind 6 kt aus Ost/Nordost
Temperatur 5°C
Luftfeuchtigkeit 87%
Luftdruck 1014 hPa
Sichtweite 10 km oder mehr
keine Wolken unter 1500 m und keine Kumulonimbus oder Gewitterwolken

METAR: LIMN 181755Z 06006KT CAVOK 05/03 Q1014 RMK SCT SCT200 VIS MIN 9999 BLU

Zeit: 12:23 (11:23 UTC)

Prognose

Neuester Wetterbericht von vor 18 Stunden und 23 Minuten, um 17:00 UTC
Gültige Prognose vom 18 um 18 UTC bis 19 um 03 UTC
Wind 10 kt aus Ost
Sichtweite 10 km oder mehr
keine Wolken unter 1500 m und keine Kumulonimbus oder Gewitterwolken
Übergehend zu
vom 18 um 18 UTC bis 18 um 20 UTC
Wind 5 kt aus Nord/Nordost
Sichtweite: 5000 m
feuchter Dunst

TAF: LIMN 181700Z 1818/1903 09010KT CAVOK BECMG 1818/1820 02005KT 5000 BR

Wetterbeobachtungen und Prognosen von mehr als 4000 Flughäfen (METAR und TAF Bericht).

Die verfügbaren Stationen werden durch gelbe und rote Markierungen auf der Karte dargestellt.

Führen Sie die Maus auf sie, um den Namen der Station zu sehen.

Darauf klicken, um die Beobachtung von Wetterbeobachtungen und Prognosen zu sehen.

Um die Karte zu ändern : klicken Sie auf den grünen Tasten mit einem schwarzen Kreuz Zum Vergrößern, auf den grünen Button mit einem Gedankenstrich zu verkleinern, oder auf die grünen Pfeile für benachbarte Karten.


METAR-TAF: